Time;durP1;ratioP1;P1;durP2;ratioP2;P2;SDS_P1;SDS_P2;PMS_P1;PMS_P2;Temp;Humidity;BMP_temperature;BMP_pressure;BME280_temperature;BME280_humidity;BME280_pressure;Samples;Min_cycle;Max_cycle;Signal;HPM_P1;HPM_P2
2023/07/31 00:00:34;;;;;;;4.65;2.08;;;18.90;99.90;;;;;;5032175;28;20037;-47
2023/07/31 00:02:59;;;;;;;6.25;2.30;;;18.90;99.90;;;;;;5032125;28;20029;-48
2023/07/31 00:05:25;;;;;;;14.75;1.90;;;18.90;99.90;;;;;;5032569;28;20022;-50
2023/07/31 00:07:50;;;;;;;9.15;1.77;;;19.00;99.90;;;;;;5032013;28;20028;-47
2023/07/31 00:10:16;;;;;;;6.18;2.67;;;19.00;99.90;;;;;;5031788;28;20025;-48
2023/07/31 00:12:42;;;;;;;3.05;1.80;;;19.00;99.90;;;;;;5031902;28;20062;-52
2023/07/31 00:15:08;;;;;;;9.25;2.00;;;19.10;99.90;;;;;;5032762;28;20028;-47
2023/07/31 00:17:34;;;;;;;5.68;1.80;;;19.10;99.90;;;;;;5032243;28;20476;-47
2023/07/31 00:19:59;;;;;;;5.07;1.63;;;19.10;99.90;;;;;;5031745;28;20038;-48
2023/07/31 00:22:25;;;;;;;4.55;1.23;;;19.10;99.90;;;;;;5032012;28;20032;-47
2023/07/31 00:24:51;;;;;;;3.42;1.52;;;19.10;99.90;;;;;;5031840;28;20393;-47
2023/07/31 00:27:16;;;;;;;6.95;1.75;;;19.10;99.90;;;;;;5031687;28;20595;-48
2023/07/31 00:29:42;;;;;;;4.57;1.70;;;19.10;99.90;;;;;;5030628;28;20025;-47
2023/07/31 00:32:07;;;;;;;4.15;1.85;;;19.10;99.90;;;;;;5031838;28;20033;-48
2023/07/31 00:34:33;;;;;;;3.78;1.50;;;19.10;99.90;;;;;;5031793;28;20029;-50
2023/07/31 00:36:58;;;;;;;8.85;2.00;;;19.10;99.90;;;;;;5031373;28;20033;-51
2023/07/31 00:39:24;;;;;;;5.90;2.20;;;19.10;99.90;;;;;;5031770;28;20034;-47
2023/07/31 00:41:49;;;;;;;3.65;1.48;;;19.10;99.90;;;;;;5031591;28;20442;-48
2023/07/31 00:44:15;;;;;;;5.40;1.88;;;19.10;99.90;;;;;;5013601;28;20489;-49
2023/07/31 00:46:41;;;;;;;7.28;2.25;;;19.10;99.90;;;;;;5031371;28;20112;-51
2023/07/31 00:49:07;;;;;;;4.82;1.90;;;19.10;99.90;;;;;;5013436;28;20485;-51
2023/07/31 00:51:33;;;;;;;3.28;2.05;;;19.10;99.90;;;;;;5031338;28;20025;-50
2023/07/31 00:53:59;;;;;;;6.35;1.90;;;19.10;99.90;;;;;;5031428;28;20036;-47
2023/07/31 00:56:25;;;;;;;5.75;1.77;;;19.10;99.90;;;;;;5031365;28;20026;-47
2023/07/31 00:58:51;;;;;;;2.97;1.77;;;19.10;99.90;;;;;;5013736;28;20053;-49
2023/07/31 01:01:16;;;;;;;6.95;2.03;;;19.10;99.90;;;;;;5031329;28;20071;-48
2023/07/31 01:03:42;;;;;;;5.40;1.65;;;19.10;99.90;;;;;;5031290;28;20025;-49
2023/07/31 01:06:17;;;;;;;6.13;2.22;;;19.10;99.90;;;;;;5031169;28;20108;-47
2023/07/31 01:08:47;;;;;;;8.27;2.70;;;19.10;99.90;;;;;;5013294;28;20472;-51
2023/07/31 01:11:19;;;;;;;6.10;1.55;;;19.00;99.90;;;;;;5031278;28;20481;-50
2023/07/31 01:13:45;;;;;;;4.47;2.28;;;19.00;99.90;;;;;;5031213;28;20478;-51
2023/07/31 01:16:11;;;;;;;3.40;1.67;;;19.00;99.90;;;;;;5031068;28;20021;-49
2023/07/31 01:18:37;;;;;;;4.57;1.70;;;18.90;99.90;;;;;;5031059;28;20453;-47
2023/07/31 01:21:21;;;;;;;6.35;1.90;;;18.90;99.90;;;;;;5031111;28;20044;-47
2023/07/31 01:24:23;;;;;;;11.93;2.63;;;18.90;99.90;;;;;;5031037;28;20022;-47
2023/07/31 01:26:57;;;;;;;3.47;1.80;;;18.80;99.90;;;;;;5031119;28;20026;-47
2023/07/31 01:29:26;;;;;;;5.85;1.83;;;18.80;99.90;;;;;;5030686;28;20017;-50
2023/07/31 01:31:55;;;;;;;2.70;1.60;;;18.80;99.90;;;;;;5031065;28;20026;-51
2023/07/31 01:34:21;;;;;;;2.90;2.35;;;18.80;99.90;;;;;;5031047;28;20445;-49
2023/07/31 01:36:47;;;;;;;6.65;1.65;;;18.80;99.90;;;;;;5030703;28;20034;-53
2023/07/31 01:39:15;;;;;;;5.70;2.00;;;18.80;99.90;;;;;;5030838;28;20041;-48
2023/07/31 01:41:40;;;;;;;3.33;1.70;;;18.80;99.90;;;;;;5032859;28;20029;-50
2023/07/31 01:44:06;;;;;;;6.43;2.20;;;18.80;99.90;;;;;;5034371;28;20565;-54
2023/07/31 01:46:32;;;;;;;6.15;2.50;;;18.90;99.90;;;;;;5034651;28;20025;-49
2023/07/31 01:48:57;;;;;;;4.15;1.73;;;18.90;99.90;;;;;;5034256;28;20163;-51
2023/07/31 01:51:23;;;;;;;8.63;2.03;;;18.90;99.90;;;;;;5034527;28;20029;-51
2023/07/31 01:53:48;;;;;;;4.57;1.63;;;18.80;99.90;;;;;;5034488;28;20033;-48
2023/07/31 01:56:14;;;;;;;4.47;2.25;;;18.80;99.90;;;;;;5034290;28;20447;-49
2023/07/31 01:58:39;;;;;;;6.38;1.85;;;18.80;99.90;;;;;;5034414;28;20501;-51
2023/07/31 02:01:05;;;;;;;4.10;1.98;;;18.80;99.90;;;;;;5034351;28;20076;-49
2023/07/31 02:03:30;;;;;;;8.00;2.10;;;18.70;99.90;;;;;;5034305;28;20104;-49
2023/07/31 02:05:56;;;;;;;5.75;1.90;;;18.70;99.90;;;;;;5034175;28;20033;-49
2023/07/31 02:08:22;;;;;;;12.25;3.55;;;18.70;99.90;;;;;;5033883;28;20013;-53
2023/07/31 02:10:47;;;;;;;3.65;1.73;;;18.70;99.90;;;;;;5034200;28;20104;-50
2023/07/31 02:13:13;;;;;;;10.95;2.70;;;18.70;99.90;;;;;;5034138;28;20026;-47
2023/07/31 02:15:38;;;;;;;3.88;1.75;;;18.70;99.90;;;;;;5033948;28;20534;-47
2023/07/31 02:18:04;;;;;;;7.20;2.25;;;18.70;99.90;;;;;;5033778;28;20356;-50
2023/07/31 02:20:29;;;;;;;4.78;2.15;;;18.70;99.90;;;;;;5034116;28;20030;-49
2023/07/31 02:22:55;;;;;;;8.05;2.20;;;18.70;99.90;;;;;;5016167;28;20647;-49
2023/07/31 02:25:20;;;;;;;5.82;3.05;;;18.70;99.90;;;;;;5034075;28;20504;-47
2023/07/31 02:27:46;;;;;;;7.47;2.55;;;18.70;99.90;;;;;;5033639;28;20033;-45
2023/07/31 02:30:11;;;;;;;2.92;2.15;;;18.60;99.90;;;;;;5033729;28;20051;-51
2023/07/31 02:32:37;;;;;;;5.75;2.50;;;18.60;99.90;;;;;;5033931;28;20030;-50
2023/07/31 02:35:03;;;;;;;2.67;1.67;;;18.60;99.90;;;;;;5015910;28;20392;-48
2023/07/31 02:37:29;;;;;;;9.35;2.15;;;18.60;99.90;;;;;;5033540;28;20488;-48
2023/07/31 02:39:55;;;;;;;7.95;2.17;;;18.60;99.90;;;;;;5033461;28;20489;-49
2023/07/31 02:42:20;;;;;;;6.57;2.10;;;18.50;99.90;;;;;;5033705;28;20061;-48
2023/07/31 02:44:46;;;;;;;5.05;2.13;;;18.50;99.90;;;;;;5033294;28;20052;-51
2023/07/31 02:47:11;;;;;;;4.95;2.40;;;18.50;99.90;;;;;;5033404;28;20059;-49
2023/07/31 02:49:37;;;;;;;9.40;2.28;;;18.50;99.90;;;;;;5015334;28;20454;-49
2023/07/31 02:52:03;;;;;;;3.97;2.40;;;18.50;99.90;;;;;;5033039;28;20493;-49
2023/07/31 02:54:28;;;;;;;9.00;2.75;;;18.50;99.90;;;;;;5032936;28;20368;-47
2023/07/31 02:56:54;;;;;;;4.82;2.40;;;18.50;99.90;;;;;;5033231;28;20033;-51
2023/07/31 02:59:20;;;;;;;4.75;2.05;;;18.50;99.90;;;;;;5033075;28;20108;-48
2023/07/31 03:01:46;;;;;;;6.45;2.40;;;18.50;99.90;;;;;;5033243;28;20378;-49
2023/07/31 03:04:11;;;;;;;4.13;2.38;;;18.50;99.90;;;;;;5033225;28;20036;-55
2023/07/31 03:06:36;;;;;;;4.90;2.08;;;18.50;99.90;;;;;;5015316;28;20065;-50
2023/07/31 03:09:02;;;;;;;6.32;2.97;;;18.50;99.90;;;;;;5032841;28;20037;-51
2023/07/31 03:11:28;;;;;;;4.68;2.00;;;18.50;99.90;;;;;;5033266;28;20032;-49
2023/07/31 03:13:53;;;;;;;4.00;2.33;;;18.50;99.90;;;;;;5033015;28;20017;-48
2023/07/31 03:16:19;;;;;;;11.45;2.70;;;18.50;99.90;;;;;;5032964;28;20017;-48
2023/07/31 03:18:45;;;;;;;5.95;2.08;;;18.50;99.90;;;;;;5032769;28;20087;-48
2023/07/31 03:21:10;;;;;;;2.70;1.83;;;18.50;99.90;;;;;;5032935;28;20370;-47
2023/07/31 03:23:36;;;;;;;3.63;1.75;;;18.40;99.90;;;;;;5032870;28;20025;-53
2023/07/31 03:26:05;;;;;;;10.55;2.55;;;18.50;99.90;;;;;;5032732;28;20405;-49
2023/07/31 03:28:31;;;;;;;6.82;2.47;;;18.50;99.90;;;;;;5032488;28;20099;-47
2023/07/31 03:30:56;;;;;;;6.70;2.60;;;18.50;99.90;;;;;;5032678;28;20385;-50
2023/07/31 03:33:22;;;;;;;6.30;2.60;;;18.50;99.90;;;;;;5014757;28;20029;-49
2023/07/31 03:35:47;;;;;;;12.13;2.53;;;18.40;99.90;;;;;;5032460;28;20056;-52
2023/07/31 03:38:13;;;;;;;9.57;2.17;;;18.50;99.90;;;;;;5032317;28;20486;-46
2023/07/31 03:40:39;;;;;;;8.30;3.15;;;18.50;99.90;;;;;;5032520;28;20025;-48
2023/07/31 03:43:05;;;;;;;4.90;2.60;;;18.50;99.90;;;;;;5032262;28;20072;-49
2023/07/31 03:45:31;;;;;;;6.70;2.83;;;18.40;99.90;;;;;;5014566;28;20492;-53
2023/07/31 03:47:56;;;;;;;4.05;2.67;;;18.40;99.90;;;;;;5014496;28;20029;-50
2023/07/31 03:50:22;;;;;;;13.18;3.53;;;18.40;99.90;;;;;;5032392;28;20471;-49
2023/07/31 03:52:47;;;;;;;4.07;2.22;;;18.30;99.90;;;;;;5032315;28;20087;-52
2023/07/31 03:55:13;;;;;;;4.57;2.33;;;18.30;99.90;;;;;;5032284;28;20029;-49
2023/07/31 03:57:38;;;;;;;7.97;4.25;;;18.20;99.90;;;;;;5032176;28;20447;-49
2023/07/31 04:00:05;;;;;;;5.30;2.72;;;18.10;99.90;;;;;;5014367;28;20546;-46
2023/07/31 04:02:30;;;;;;;6.78;2.83;;;18.10;99.90;;;;;;5032372;28;20032;-47
2023/07/31 04:04:55;;;;;;;6.22;2.90;;;18.10;99.90;;;;;;5032173;28;20029;-48
2023/07/31 04:07:21;;;;;;;10.05;2.72;;;18.10;99.90;;;;;;5031826;28;20025;-48
2023/07/31 04:09:46;;;;;;;6.05;2.38;;;18.00;99.90;;;;;;5031996;28;20026;-46
2023/07/31 04:12:12;;;;;;;7.80;2.25;;;18.00;99.90;;;;;;5014208;28;20029;-48
2023/07/31 04:14:37;;;;;;;6.00;2.47;;;18.00;99.90;;;;;;5031765;28;20037;-52
2023/07/31 04:17:03;;;;;;;5.30;2.58;;;18.00;99.90;;;;;;5014135;28;20025;-46
2023/07/31 04:19:28;;;;;;;7.55;2.20;;;18.00;99.90;;;;;;5031768;28;20068;-48
2023/07/31 04:21:54;;;;;;;6.70;3.20;;;18.00;99.90;;;;;;5031869;28;20052;-47
2023/07/31 04:24:24;;;;;;;6.72;2.55;;;18.00;99.90;;;;;;5031674;28;20619;-46
2023/07/31 04:26:50;;;;;;;4.68;2.03;;;18.00;99.90;;;;;;5014571;28;20017;-46
2023/07/31 04:29:16;;;;;;;5.28;2.30;;;18.00;99.90;;;;;;5013641;28;20039;-46
2023/07/31 04:31:41;;;;;;;8.50;2.72;;;18.00;99.90;;;;;;5031593;28;20108;-46
2023/07/31 04:34:07;;;;;;;4.45;2.50;;;18.00;99.90;;;;;;5031603;28;20075;-46
2023/07/31 04:36:33;;;;;;;7.90;2.50;;;18.00;99.90;;;;;;5031426;28;20455;-45
2023/07/31 04:38:59;;;;;;;8.85;2.25;;;18.10;99.90;;;;;;5031349;28;20052;-42
2023/07/31 04:41:24;;;;;;;5.70;3.15;;;18.10;99.90;;;;;;5031802;28;20025;-50
2023/07/31 04:43:50;;;;;;;6.25;2.92;;;18.10;99.90;;;;;;5031238;28;20025;-47
2023/07/31 04:46:15;;;;;;;13.88;2.50;;;18.10;99.90;;;;;;5031378;28;20064;-51
2023/07/31 04:48:41;;;;;;;10.18;2.50;;;18.10;99.90;;;;;;5031109;28;20100;-50
2023/07/31 04:51:06;;;;;;;5.50;2.13;;;18.10;99.90;;;;;;5031381;28;20105;-46
2023/07/31 04:53:32;;;;;;;8.65;2.78;;;18.10;99.90;;;;;;5031400;28;20021;-46
2023/07/31 04:55:58;;;;;;;6.07;2.50;;;18.20;99.90;;;;;;5031496;28;20022;-46
2023/07/31 04:58:23;;;;;;;5.97;2.58;;;18.20;99.90;;;;;;5031109;28;20026;-46
2023/07/31 05:00:49;;;;;;;11.40;3.85;;;18.20;99.90;;;;;;5031346;28;20041;-46
2023/07/31 05:03:14;;;;;;;9.38;2.75;;;18.20;99.90;;;;;;5013615;28;20464;-47
2023/07/31 05:05:40;;;;;;;10.68;3.30;;;18.20;99.90;;;;;;5013408;28;20087;-47
2023/07/31 05:08:05;;;;;;;7.43;2.53;;;18.20;99.90;;;;;;5030930;28;20481;-48
2023/07/31 05:10:31;;;;;;;8.57;2.35;;;18.20;99.90;;;;;;5031186;28;20316;-48
2023/07/31 05:12:56;;;;;;;4.25;2.92;;;18.20;99.90;;;;;;5031248;28;20454;-49
2023/07/31 05:15:22;;;;;;;9.07;3.17;;;18.20;99.90;;;;;;5031111;28;20036;-49
2023/07/31 05:17:48;;;;;;;7.88;2.38;;;18.20;99.90;;;;;;5041626;22;20042;-50
2023/07/31 05:20:14;;;;;;;5.93;2.33;;;18.20;99.90;;;;;;4997551;28;20113;-54
2023/07/31 05:22:40;;;;;;;9.15;2.17;;;18.30;99.90;;;;;;5015338;28;20030;-54
2023/07/31 05:25:06;;;;;;;5.03;2.35;;;18.30;99.90;;;;;;4997968;28;20096;-56
2023/07/31 05:27:32;;;;;;;4.20;3.05;;;18.30;99.90;;;;;;5015209;28;20040;-56
2023/07/31 05:29:57;;;;;;;4.25;2.47;;;18.30;99.90;;;;;;5014956;28;20117;-56
2023/07/31 05:32:23;;;;;;;14.23;3.55;;;18.30;99.90;;;;;;5015169;28;20582;-54
2023/07/31 05:34:51;;;;;;;6.70;2.83;;;18.30;99.90;;;;;;5015136;28;20022;-57
2023/07/31 05:37:17;;;;;;;6.65;2.13;;;18.30;99.90;;;;;;5014910;28;20045;-54
2023/07/31 05:39:42;;;;;;;6.38;2.63;;;18.40;99.90;;;;;;5014924;28;20022;-55
2023/07/31 05:42:08;;;;;;;5.53;1.95;;;18.50;99.90;;;;;;5015049;28;20038;-55
2023/07/31 05:44:34;;;;;;;10.68;2.50;;;18.40;99.90;;;;;;5014611;28;20033;-55
2023/07/31 05:47:00;;;;;;;7.53;2.70;;;18.40;99.90;;;;;;5014935;28;20083;-56
2023/07/31 05:49:25;;;;;;;5.85;2.15;;;18.40;99.90;;;;;;4996980;28;20025;-57
2023/07/31 05:51:51;;;;;;;7.70;3.28;;;18.40;99.90;;;;;;5014955;28;20029;-54
2023/07/31 05:54:16;;;;;;;4.88;2.60;;;18.30;99.90;;;;;;5014770;28;20026;-57
2023/07/31 05:56:42;;;;;;;6.50;2.55;;;18.40;99.90;;;;;;5014659;28;20018;-56
2023/07/31 05:59:10;;;;;;;7.10;2.35;;;18.30;99.90;;;;;;5014489;28;20029;-53
2023/07/31 06:01:35;;;;;;;5.75;3.10;;;18.40;99.90;;;;;;5015730;28;20030;-52
2023/07/31 06:04:02;;;;;;;6.90;2.78;;;18.40;99.90;;;;;;4997009;28;20022;-53
2023/07/31 06:06:28;;;;;;;6.03;2.55;;;18.50;99.90;;;;;;5014501;28;20033;-55
2023/07/31 06:08:53;;;;;;;10.50;2.95;;;18.60;99.90;;;;;;5014202;28;20100;-52
2023/07/31 06:11:20;;;;;;;5.57;2.78;;;18.70;99.90;;;;;;5014716;28;20086;-53
2023/07/31 06:13:47;;;;;;;5.32;2.78;;;18.80;99.90;;;;;;5014437;28;20113;-50
2023/07/31 06:16:13;;;;;;;6.72;3.15;;;18.80;99.90;;;;;;5014212;28;20046;-53
2023/07/31 06:18:39;;;;;;;8.82;2.85;;;18.80;99.90;;;;;;5014076;28;20109;-51
2023/07/31 06:21:05;;;;;;;8.85;2.85;;;18.80;99.90;;;;;;5014310;28;20057;-53
2023/07/31 06:23:31;;;;;;;5.82;2.72;;;18.80;99.90;;;;;;5014207;28;20101;-52
2023/07/31 06:25:56;;;;;;;6.53;2.90;;;18.90;99.90;;;;;;5014239;28;20109;-55
2023/07/31 06:28:28;;;;;;;11.02;2.50;;;19.00;99.90;;;;;;5012494;28;20498;-50
2023/07/31 06:30:53;;;;;;;10.13;3.22;;;19.10;99.90;;;;;;5014125;28;20058;-50
2023/07/31 06:33:19;;;;;;;8.25;2.67;;;19.20;99.90;;;;;;5013927;28;20045;-51
2023/07/31 06:35:45;;;;;;;7.97;2.75;;;19.30;99.90;;;;;;5014023;28;20389;-51
2023/07/31 06:38:11;;;;;;;6.38;2.60;;;19.30;99.90;;;;;;4996234;28;20100;-52
2023/07/31 06:40:36;;;;;;;5.68;2.85;;;19.40;99.90;;;;;;5014039;28;20018;-52
2023/07/31 06:43:07;;;;;;;6.38;2.20;;;19.50;99.90;;;;;;5013865;28;20478;-49
2023/07/31 06:45:34;;;;;;;6.45;2.67;;;19.70;99.90;;;;;;5013630;28;20030;-50
2023/07/31 06:48:01;;;;;;;8.95;3.42;;;20.20;99.90;;;;;;5013549;28;20489;-53
2023/07/31 06:50:27;;;;;;;5.35;2.15;;;20.90;99.90;;;;;;5013723;28;20026;-48
2023/07/31 06:52:53;;;;;;;11.65;3.65;;;21.10;99.90;;;;;;4996128;28;20394;-53
2023/07/31 06:55:22;;;;;;;6.13;2.53;;;21.40;99.90;;;;;;5013650;28;20018;-53
2023/07/31 06:57:49;;;;;;;3.53;2.80;;;21.60;99.90;;;;;;5013179;28;20060;-54
2023/07/31 07:00:16;;;;;;;8.05;2.35;;;21.50;99.90;;;;;;4995839;28;20036;-53
2023/07/31 07:02:41;;;;;;;5.70;3.20;;;21.40;99.90;;;;;;5013534;28;20030;-54
2023/07/31 07:05:08;;;;;;;7.90;2.60;;;21.20;99.90;;;;;;4995841;28;20112;-53
2023/07/31 07:07:33;;;;;;;12.73;2.78;;;20.90;99.90;;;;;;4995723;28;20026;-52
2023/07/31 07:10:03;;;;;;;9.95;2.75;;;20.90;99.90;;;;;;5013243;28;20030;-53
2023/07/31 07:12:32;;;;;;;10.98;2.47;;;20.80;99.90;;;;;;5013159;28;20048;-51
2023/07/31 07:14:58;;;;;;;7.93;2.17;;;20.70;99.90;;;;;;5013280;28;20072;-54
2023/07/31 07:17:24;;;;;;;5.18;2.58;;;20.60;99.90;;;;;;5013078;28;20030;-54
2023/07/31 07:19:50;;;;;;;9.10;2.80;;;20.40;99.90;;;;;;5012974;28;20030;-51
2023/07/31 07:22:15;;;;;;;4.13;2.40;;;20.40;99.90;;;;;;5013232;28;20026;-52
2023/07/31 07:24:41;;;;;;;4.20;2.45;;;20.20;99.90;;;;;;5012990;28;20029;-53
2023/07/31 07:27:07;;;;;;;4.13;2.28;;;20.20;99.90;;;;;;5012852;28;20022;-51
2023/07/31 07:29:34;;;;;;;4.95;2.72;;;20.20;99.90;;;;;;5012934;28;20034;-56
2023/07/31 07:32:00;;;;;;;6.70;2.40;;;20.20;99.90;;;;;;4995437;28;20405;-54
2023/07/31 07:34:27;;;;;;;10.52;2.85;;;20.30;99.90;;;;;;5013092;28;20022;-55
2023/07/31 07:36:52;;;;;;;4.93;2.13;;;20.40;99.90;;;;;;5012977;28;20025;-53
2023/07/31 07:39:18;;;;;;;5.85;3.05;;;20.50;99.90;;;;;;5012477;28;20057;-57
2023/07/31 07:41:43;;;;;;;4.95;2.25;;;20.50;99.90;;;;;;5012745;28;20065;-53
2023/07/31 07:44:09;;;;;;;7.70;2.85;;;20.50;99.90;;;;;;5012559;28;20389;-52
2023/07/31 07:46:34;;;;;;;11.50;2.70;;;20.50;99.90;;;;;;4997870;28;20037;-51
2023/07/31 07:49:00;;;;;;;10.13;2.92;;;20.40;99.90;;;;;;5006766;28;20171;-50
2023/07/31 07:51:25;;;;;;;6.93;2.50;;;20.40;99.90;;;;;;5010901;28;20030;-54
2023/07/31 07:53:51;;;;;;;6.53;2.53;;;20.40;99.90;;;;;;4994918;28;20026;-50
2023/07/31 07:56:17;;;;;;;4.60;2.60;;;20.50;99.90;;;;;;5012538;28;20506;-53
2023/07/31 07:58:42;;;;;;;4.85;2.42;;;20.80;99.90;;;;;;5015595;28;20045;-53
2023/07/31 08:01:08;;;;;;;5.30;2.90;;;21.30;99.90;;;;;;5012667;28;20562;-55
2023/07/31 08:03:33;;;;;;;6.95;2.45;;;22.00;99.90;;;;;;5012502;28;20057;-53
2023/07/31 08:06:00;;;;;;;4.32;2.10;;;22.50;99.90;;;;;;5012894;28;20029;-54
2023/07/31 08:08:26;;;;;;;7.65;2.22;;;22.50;99.90;;;;;;4995012;28;20075;-52
2023/07/31 08:10:51;;;;;;;7.95;2.45;;;22.30;99.90;;;;;;5012813;28;20393;-51
2023/07/31 08:13:17;;;;;;;5.80;2.35;;;22.20;99.90;;;;;;5012089;28;20026;-50
2023/07/31 08:15:42;;;;;;;4.03;2.72;;;22.00;99.90;;;;;;5012338;28;20030;-56
2023/07/31 08:18:08;;;;;;;4.18;2.53;;;21.60;99.90;;;;;;5011108;28;20414;-56
2023/07/31 08:20:34;;;;;;;6.43;3.03;;;21.50;99.90;;;;;;5012531;28;20401;-55
2023/07/31 08:23:00;;;;;;;10.88;2.35;;;21.40;99.90;;;;;;4993895;28;20036;-50
2023/07/31 08:25:25;;;;;;;6.18;2.53;;;21.30;99.90;;;;;;4994608;28;20390;-55
2023/07/31 08:27:52;;;;;;;6.53;2.35;;;21.30;99.90;;;;;;5011958;28;20034;-54
2023/07/31 08:30:18;;;;;;;4.93;2.50;;;21.30;99.90;;;;;;5014719;28;20022;-54
2023/07/31 08:32:44;;;;;;;4.40;2.33;;;21.30;99.90;;;;;;5012736;28;20049;-50
2023/07/31 08:35:10;;;;;;;3.47;2.33;;;21.40;99.90;;;;;;5012068;28;20383;-54
2023/07/31 08:37:35;;;;;;;8.30;2.63;;;21.60;99.90;;;;;;5012805;28;20513;-55
2023/07/31 08:40:01;;;;;;;8.98;2.30;;;21.70;99.90;;;;;;5011590;28;20029;-54
2023/07/31 08:42:26;;;;;;;10.75;2.72;;;21.70;99.90;;;;;;5011526;28;20362;-54
2023/07/31 08:44:53;;;;;;;5.47;3.03;;;21.70;99.90;;;;;;5011882;28;20440;-49
2023/07/31 08:47:21;;;;;;;6.43;2.55;;;21.60;99.90;;;;;;5012492;28;20029;-53
2023/07/31 08:49:47;;;;;;;7.15;2.35;;;21.50;99.90;;;;;;4992780;28;20446;-55
2023/07/31 08:52:13;;;;;;;7.50;2.42;;;21.50;99.90;;;;;;4998612;28;20029;-53
2023/07/31 08:54:39;;;;;;;5.90;2.55;;;21.50;99.90;;;;;;5031362;28;20572;-52
2023/07/31 08:57:06;;;;;;;6.10;2.63;;;21.50;99.90;;;;;;5030987;28;20026;-53
2023/07/31 08:59:34;;;;;;;6.55;2.45;;;21.50;99.90;;;;;;5026960;28;20088;-56
2023/07/31 09:02:05;;;;;;;5.88;3.25;;;21.60;99.90;;;;;;5011352;28;20501;-56
2023/07/31 09:04:31;;;;;;;5.53;2.60;;;21.50;99.90;;;;;;5011516;28;20470;-54
2023/07/31 09:07:00;;;;;;;4.68;2.60;;;21.40;99.90;;;;;;4993444;28;20547;-56
2023/07/31 09:09:26;;;;;;;5.43;2.58;;;21.40;99.90;;;;;;5011156;28;20478;-55
2023/07/31 09:11:52;;;;;;;5.13;2.42;;;21.30;99.90;;;;;;5011057;28;20037;-58
2023/07/31 09:14:19;;;;;;;8.93;2.67;;;21.20;99.90;;;;;;5006286;28;20057;-58
2023/07/31 09:16:54;;;;;;;6.20;3.20;;;21.20;99.90;;;;;;4993413;28;20125;-55
2023/07/31 09:19:29;;;;;;;22.33;11.80;;;21.20;99.90;;;;;;4994102;28;20030;-57
2023/07/31 09:21:54;;;;;;;9.15;3.58;;;21.30;99.90;;;;;;5009103;28;20091;-51
2023/07/31 09:24:28;;;;;;;4.70;2.20;;;21.50;99.90;;;;;;4994776;28;20026;-51
2023/07/31 09:26:58;;;;;;;9.45;3.22;;;21.80;99.90;;;;;;4979809;28;20117;-46
2023/07/31 09:29:26;;;;;;;5.95;2.42;;;22.40;99.90;;;;;;5010931;28;20033;-57
2023/07/31 09:31:52;;;;;;;10.52;2.33;;;22.60;99.90;;;;;;5007245;28;20053;-54
2023/07/31 09:34:17;;;;;;;6.85;2.30;;;22.80;99.90;;;;;;5017265;28;20026;-56
2023/07/31 09:36:45;;;;;;;5.10;2.67;;;23.00;99.90;;;;;;4997416;28;20034;-52
2023/07/31 09:39:11;;;;;;;6.35;2.60;;;23.00;99.90;;;;;;4990881;28;20125;-52
2023/07/31 09:41:41;;;;;;;5.88;2.50;;;23.00;99.90;;;;;;4991670;28;20367;-50
2023/07/31 09:44:07;;;;;;;5.32;2.40;;;23.00;99.90;;;;;;4991741;28;20030;-54
2023/07/31 09:46:35;;;;;;;7.35;2.60;;;22.90;99.90;;;;;;4994455;28;20033;-48
2023/07/31 09:49:11;;;;;;;4.15;2.60;;;22.70;99.90;;;;;;5010898;28;20030;-49
2023/07/31 09:51:38;;;;;;;4.95;2.70;;;22.60;99.90;;;;;;5011130;28;20030;-48
2023/07/31 09:54:15;;;;;;;5.78;2.40;;;22.50;99.90;;;;;;4999503;28;20421;-52
2023/07/31 09:56:46;;;;;;;7.05;2.97;;;22.50;99.90;;;;;;5005374;28;20375;-53
2023/07/31 09:59:14;;;;;;;5.63;2.45;;;22.50;99.90;;;;;;4982105;28;20029;-55
2023/07/31 10:01:41;;;;;;;5.07;2.78;;;22.60;99.90;;;;;;4999661;28;20026;-54
2023/07/31 10:04:09;;;;;;;5.47;3.08;;;22.60;99.90;;;;;;5005985;28;20421;-56
2023/07/31 10:06:36;;;;;;;14.85;4.35;;;22.60;99.90;;;;;;5007943;28;20105;-51
2023/07/31 10:09:03;;;;;;;10.40;3.10;;;22.50;99.90;;;;;;5003459;28;20397;-55
2023/07/31 10:11:32;;;;;;;7.05;2.72;;;22.40;99.90;;;;;;5004850;28;20093;-52
2023/07/31 10:13:58;;;;;;;9.60;2.75;;;22.40;99.90;;;;;;5003984;28;20445;-50
2023/07/31 10:16:24;;;;;;;9.18;2.85;;;22.40;99.90;;;;;;5006475;28;20026;-54
2023/07/31 10:18:51;;;;;;;6.53;3.17;;;22.30;99.90;;;;;;5006753;28;20017;-50
2023/07/31 10:21:17;;;;;;;9.18;2.88;;;22.40;99.90;;;;;;5012281;28;20470;-52
2023/07/31 10:23:44;;;;;;;7.72;2.92;;;22.30;99.90;;;;;;5011974;28;20080;-59
2023/07/31 10:26:11;;;;;;;10.60;2.65;;;22.40;99.90;;;;;;5017544;28;20425;-59
2023/07/31 10:28:37;;;;;;;16.95;5.18;;;22.40;99.90;;;;;;5015643;28;20104;-58
2023/07/31 10:31:05;;;;;;;6.22;2.92;;;22.50;99.90;;;;;;5005573;28;20293;-57
2023/07/31 10:33:30;;;;;;;4.70;2.63;;;22.50;99.90;;;;;;5005446;28;20018;-52
2023/07/31 10:36:19;;;;;;;10.35;2.92;;;22.60;99.90;;;;;;4996071;28;20066;-58
2023/07/31 10:38:46;;;;;;;7.30;3.10;;;22.60;99.90;;;;;;5015093;28;20034;-57
2023/07/31 10:41:12;;;;;;;10.20;3.58;;;22.50;99.90;;;;;;5014302;28;20121;-54
2023/07/31 10:43:38;;;;;;;5.85;3.13;;;22.60;99.90;;;;;;4987082;28;20567;-56
2023/07/31 10:46:12;;;;;;;6.03;2.95;;;22.80;99.90;;;;;;5006651;28;20426;-57
2023/07/31 10:48:41;;;;;;;9.85;3.42;;;23.00;99.90;;;;;;5013182;28;20032;-59
2023/07/31 10:51:12;;;;;;;5.28;3.20;;;23.00;99.90;;;;;;4991416;28;20442;-56
2023/07/31 10:53:39;;;;;;;8.13;2.92;;;22.90;99.90;;;;;;5003724;28;20033;-52
2023/07/31 10:56:07;;;;;;;7.20;3.58;;;22.80;99.90;;;;;;5015221;28;20045;-52
2023/07/31 10:58:33;;;;;;;31.33;21.33;;;22.80;99.90;;;;;;5016451;28;20026;-57
2023/07/31 11:01:01;;;;;;;10.90;4.72;;;22.80;99.90;;;;;;4994870;28;20111;-58
2023/07/31 11:03:42;;;;;;;31.42;18.73;;;22.80;99.90;;;;;;5014773;28;20486;-56
2023/07/31 11:06:07;;;;;;;6.15;3.80;;;22.60;99.90;;;;;;5006289;28;20052;-58
2023/07/31 11:08:35;;;;;;;6.18;2.75;;;22.50;99.90;;;;;;5023640;28;20022;-57
2023/07/31 11:11:08;;;;;;;10.30;3.45;;;22.50;99.90;;;;;;5010708;28;20094;-58
2023/07/31 11:13:41;;;;;;;8.88;3.35;;;22.40;99.90;;;;;;5021649;28;20541;-58
2023/07/31 11:16:08;;;;;;;6.22;3.00;;;22.30;99.90;;;;;;5023527;28;20089;-59
2023/07/31 11:18:33;;;;;;;5.13;2.67;;;22.20;99.90;;;;;;5001644;28;20061;-60
2023/07/31 11:20:59;;;;;;;6.53;2.47;;;22.20;99.90;;;;;;5021220;28;20033;-59
2023/07/31 11:23:24;;;;;;;7.88;2.83;;;22.30;99.90;;;;;;5004369;28;20049;-59
2023/07/31 11:25:50;;;;;;;4.95;2.75;;;22.40;99.90;;;;;;4980598;28;20057;-53
2023/07/31 11:28:17;;;;;;;8.38;2.58;;;22.50;99.90;;;;;;5013307;28;20061;-54
2023/07/31 11:30:43;;;;;;;5.18;2.85;;;22.70;99.90;;;;;;5012828;28;20138;-57
2023/07/31 11:33:11;;;;;;;5.70;2.78;;;23.00;99.90;;;;;;5018059;28;20085;-53
2023/07/31 11:35:44;;;;;;;5.25;2.65;;;23.10;99.90;;;;;;5013128;28;20030;-58
2023/07/31 11:38:30;;;;;;;4.85;2.50;;;23.20;99.90;;;;;;4996010;28;20057;-58
2023/07/31 11:40:57;;;;;;;;;;;23.20;99.90;;;;;;5015735;28;20077;-55
2023/07/31 11:43:23;;;;;;;4.60;2.38;;;23.10;99.90;;;;;;5002287;28;19909;-60
2023/07/31 11:45:50;;;;;;;4.60;2.35;;;23.00;99.90;;;;;;5017816;28;20501;-56
2023/07/31 11:48:23;;;;;;;7.07;2.75;;;22.90;99.90;;;;;;5014089;28;20061;-58
2023/07/31 11:50:54;;;;;;;7.07;2.83;;;22.70;99.90;;;;;;5015597;28;20026;-59
2023/07/31 11:53:25;;;;;;;7.25;2.53;;;22.60;99.90;;;;;;4996035;28;20021;-57
2023/07/31 11:55:51;;;;;;;3.53;2.70;;;22.50;99.90;;;;;;5013753;28;20385;-58
2023/07/31 11:58:18;;;;;;;5.70;3.05;;;22.50;99.90;;;;;;5012698;28;20034;-53
2023/07/31 12:00:44;;;;;;;7.57;2.65;;;22.50;99.90;;;;;;5013978;28;20029;-53
2023/07/31 12:03:10;;;;;;;4.28;2.22;;;22.70;99.90;;;;;;4996956;28;20030;-55
2023/07/31 12:05:37;;;;;;;5.45;2.78;;;22.80;99.90;;;;;;5013143;28;20037;-58
2023/07/31 12:08:09;;;;;;;3.83;2.33;;;23.00;99.90;;;;;;5013500;28;20041;-56
2023/07/31 12:10:34;;;;;;;12.75;2.92;;;23.00;99.90;;;;;;5012633;28;20034;-57
2023/07/31 12:13:10;;;;;;;4.28;2.58;;;23.20;99.90;;;;;;5014475;28;20033;-57
2023/07/31 12:15:41;;;;;;;5.25;2.70;;;23.20;99.90;;;;;;5013817;28;20181;-58
2023/07/31 12:18:12;;;;;;;6.22;2.80;;;23.20;99.90;;;;;;4997257;28;20489;-57
2023/07/31 12:20:43;;;;;;;6.40;2.92;;;23.00;99.90;;;;;;5020422;28;20033;-57
2023/07/31 12:23:27;;;;;;;5.40;2.53;;;22.90;99.90;;;;;;4994750;28;20053;-56
2023/07/31 12:26:00;;;;;;;5.88;2.80;;;22.90;99.90;;;;;;5006784;28;20022;-51
2023/07/31 12:28:26;;;;;;;4.10;2.35;;;22.80;99.90;;;;;;5006171;28;20101;-59
2023/07/31 12:30:51;;;;;;;4.43;2.30;;;22.70;99.90;;;;;;5011935;28;20101;-57
2023/07/31 12:33:18;;;;;;;3.50;2.40;;;22.60;99.90;;;;;;4994398;28;20025;-51
2023/07/31 12:35:46;;;;;;;10.18;3.15;;;22.60;99.90;;;;;;5010858;28;20374;-55
2023/07/31 12:38:13;;;;;;;2.83;2.50;;;22.60;99.90;;;;;;5011845;28;20025;-52
2023/07/31 12:40:39;;;;;;;6.10;2.63;;;22.60;99.90;;;;;;5011621;28;20026;-55
2023/07/31 12:43:06;;;;;;;7.38;3.38;;;22.70;99.90;;;;;;5011620;28;20478;-53